Hlavní strana
METAR-TAF:

METAR-TAF

Letiště :

Letiště Kunovice

Uherské Hradiště, Česká republika

zeměpisná šířka: 49-01-46N, zeměpisná délka: 017-26-23E, výška: 177 m

Aktuální stav počasí

Zpráva byla vytvořena před 39 minutami, v 09:00 UTC
Západní vítr 4 kt, proměnlivý mezi jižním a západním
Teplota 1°C
Vlhkost vzduchu 86%
Tlak 1026 hPa
Viditelnost 10 km a více
Skoro jasno ve výšce 2300 ft

METAR: LKKU 190900Z 26004KT 190V280 9999 FEW023 01/M01 Q1026

Čas: 10:39 (09:39 UTC)


TAF: chybějící

Stav a předpovědi počasí z více než 4 000 letišť (zprávy METAR a TAF).

Červené a žluté tečky na mapě představují dostupné meteorologické stanice.

Když kurzor umístíte na tečku, zobrazí se název stanice.

Pak kliknutím zobrazíte stav a předpověď počasí.

Chcete-li změnit mapu, kliknutím na zelené tlačítko se znaménkem +mapu přiblížíte, kliknutím na zelené tlačítko se znaménkem – mapu oddálíte a kliknutím na zelené šipky přejdete na sousední mapy.


METAR-TAF: